Dmitrov, Russia
Current Conditions -  °F | °C
As of 6:00 PM on Thursday 23 Oct 2014 (Local Time) from UUEE Reporting Station
Broken Clouds Broken Clouds  
Wind Chill:   Ceiling: 2300
Heat Index: 19°   Visibility: 6mi
Dew Point: 12°   Wind: 9mph
Humidity: 74%   Direction: 300°WNW
Pressure: 30.36"   Gusts: NA
Location:  56.35°N, 37.52°E
Report Text: UUEE 231500Z 30004MPS 9999 BKN023 M07/M11 Q1028 7541016225410151 NOSIG
Loading
Personal Weather Stations






























Interactive Weather Map
Tropical Storm Tracking
New forecast layout! Learn more

10-Day Weather Forecast

Advertisements
Track Severe Weather on mobile